createdAt,value
2022-09-15T00:00:55.107Z,92.00
2022-09-15T00:03:24.282Z,92.00
2022-09-15T00:05:54.457Z,92.10
2022-09-15T00:08:23.320Z,92.00
2022-09-15T00:10:52.649Z,92.10
2022-09-15T00:13:23.216Z,92.20
2022-09-15T00:15:51.691Z,92.00
2022-09-15T00:18:19.674Z,92.00
2022-09-15T00:20:47.875Z,92.00
2022-09-15T00:23:17.093Z,92.10
2022-09-15T00:25:46.556Z,92.00
2022-09-15T00:28:15.458Z,92.10
2022-09-15T00:30:46.381Z,92.10
2022-09-15T00:33:15.908Z,92.10
2022-09-15T00:35:45.440Z,92.10
2022-09-15T00:38:14.862Z,92.10
2022-09-15T00:40:47.196Z,92.10
2022-09-15T00:43:16.498Z,92.10
2022-09-15T00:45:45.908Z,92.10
2022-09-15T00:48:21.671Z,92.20
2022-09-15T00:50:54.184Z,92.10
2022-09-15T00:53:23.681Z,92.10
2022-09-15T00:55:52.501Z,92.10
2022-09-15T00:58:24.603Z,92.20
2022-09-15T01:00:57.926Z,92.20
2022-09-15T01:03:27.225Z,92.20
2022-09-15T01:05:58.888Z,92.20
2022-09-15T01:08:32.844Z,92.20
2022-09-15T01:11:01.322Z,92.30
2022-09-15T01:13:30.224Z,92.20
2022-09-15T01:16:06.344Z,92.10
2022-09-15T01:18:43.845Z,92.20
2022-09-15T01:21:34.562Z,92.20
2022-09-15T01:24:44.898Z,92.20
2022-09-15T01:27:42.085Z,92.20
2022-09-15T01:30:14.114Z,92.20
2022-09-15T01:33:03.814Z,92.10
2022-09-15T01:35:49.610Z,92.10
2022-09-15T01:38:25.820Z,92.10
2022-09-15T01:40:58.132Z,92.00
2022-09-15T01:43:28.130Z,91.90
2022-09-15T01:45:58.573Z,92.00
2022-09-15T01:48:29.103Z,92.10
2022-09-15T01:51:01.213Z,92.10
2022-09-15T01:53:30.158Z,92.20
2022-09-15T01:56:01.780Z,92.20
2022-09-15T01:58:30.006Z,92.20
2022-09-15T02:01:04.140Z,92.10
2022-09-15T02:03:36.112Z,92.10
2022-09-15T02:06:07.202Z,92.10
2022-09-15T02:08:42.775Z,92.10
2022-09-15T02:11:16.675Z,92.10
2022-09-15T02:13:54.128Z,92.20
2022-09-15T02:16:25.770Z,92.20
2022-09-15T02:19:19.716Z,92.20
2022-09-15T02:22:00.335Z,92.20
2022-09-15T02:24:33.929Z,92.20
2022-09-15T02:27:03.963Z,92.20
2022-09-15T02:29:36.272Z,92.20
2022-09-15T02:32:08.179Z,92.20
2022-09-15T02:34:41.383Z,92.20
2022-09-15T02:37:10.732Z,92.30
2022-09-15T02:39:43.318Z,92.20
2022-09-15T02:42:11.214Z,92.20
2022-09-15T02:44:39.220Z,92.30
2022-09-15T02:47:08.741Z,92.30
2022-09-15T02:49:36.582Z,92.30
2022-09-15T02:52:04.652Z,92.30
2022-09-15T02:54:32.550Z,92.20
2022-09-15T02:57:01.159Z,92.50
2022-09-15T02:59:49.606Z,92.10
2022-09-15T03:02:20.422Z,92.00
2022-09-15T03:04:48.823Z,92.00
2022-09-15T03:07:17.104Z,92.20
2022-09-15T03:09:45.133Z,92.20
2022-09-15T03:12:13.218Z,92.20
2022-09-15T03:14:41.063Z,92.20
2022-09-15T03:17:08.971Z,92.10
2022-09-15T03:19:38.407Z,92.10
2022-09-15T03:22:06.343Z,92.20
2022-09-15T03:24:34.265Z,92.10
2022-09-15T03:27:02.553Z,92.10
2022-09-15T03:29:30.939Z,92.20
2022-09-15T03:31:58.877Z,92.20
2022-09-15T03:34:26.799Z,92.20
2022-09-15T03:36:56.045Z,92.20
2022-09-15T03:39:24.324Z,92.20
2022-09-15T03:41:52.223Z,92.30
2022-09-15T03:44:20.123Z,92.20
2022-09-15T03:46:48.252Z,92.20
2022-09-15T03:49:16.104Z,92.20
2022-09-15T03:51:44.606Z,92.30
2022-09-15T03:54:14.018Z,92.10
2022-09-15T03:56:41.918Z,92.20
2022-09-15T03:59:10.565Z,92.20
2022-09-15T04:01:38.507Z,92.30
2022-09-15T04:04:06.893Z,92.30
2022-09-15T04:06:35.409Z,92.30
2022-09-15T04:09:03.313Z,92.30
2022-09-15T04:11:34.063Z,92.30
2022-09-15T04:14:02.023Z,92.30
2022-09-15T04:16:30.222Z,92.30
2022-09-15T04:18:58.628Z,92.20
2022-09-15T04:21:27.715Z,92.20
2022-09-15T04:23:55.860Z,92.30
2022-09-15T04:26:27.003Z,92.30
2022-09-15T04:28:58.676Z,92.30
2022-09-15T04:31:28.670Z,92.30
2022-09-15T04:33:57.167Z,92.30
2022-09-15T04:36:27.378Z,92.20
2022-09-15T04:38:56.192Z,92.30
2022-09-15T04:41:24.465Z,92.30
2022-09-15T04:43:52.779Z,92.30
2022-09-15T04:46:22.186Z,92.30
2022-09-15T04:48:50.260Z,92.40
2022-09-15T04:51:20.330Z,92.40
2022-09-15T04:53:49.043Z,92.30
2022-09-15T04:56:19.119Z,92.30
2022-09-15T04:58:48.787Z,92.40
2022-09-15T05:01:19.085Z,92.40
2022-09-15T05:03:49.127Z,92.30
2022-09-15T05:06:19.300Z,92.30
2022-09-15T05:08:49.014Z,92.30
2022-09-15T05:11:17.654Z,92.30
2022-09-15T05:13:45.610Z,92.20
2022-09-15T05:16:15.908Z,92.20
2022-09-15T05:18:45.454Z,92.10
2022-09-15T05:21:16.602Z,92.00
2022-09-15T05:23:44.901Z,92.00
2022-09-15T05:26:17.075Z,91.90
2022-09-15T05:28:46.085Z,91.80
2022-09-15T05:31:17.855Z,91.60
2022-09-15T05:33:46.177Z,91.80
2022-09-15T05:36:17.258Z,91.80
2022-09-15T05:38:45.261Z,91.90
2022-09-15T05:41:16.921Z,91.80
2022-09-15T05:43:46.409Z,91.50
2022-09-15T05:46:15.803Z,91.80
2022-09-15T05:48:44.125Z,91.70
2022-09-15T05:51:12.796Z,91.90
2022-09-15T05:53:42.269Z,92.00
2022-09-15T05:56:12.967Z,91.90
2022-09-15T05:58:42.291Z,92.10
2022-09-15T06:01:13.293Z,91.80
2022-09-15T06:03:41.692Z,91.50
2022-09-15T06:06:09.893Z,90.90
2022-09-15T06:08:43.715Z,89.60
2022-09-15T06:11:16.146Z,89.50
2022-09-15T06:13:44.638Z,88.70
2022-09-15T06:16:14.122Z,88.10
2022-09-15T06:18:42.940Z,85.60
2022-09-15T06:21:12.354Z,85.10
2022-09-15T06:23:40.927Z,85.70
2022-09-15T06:26:11.324Z,84.40
2022-09-15T06:28:42.181Z,82.10
2022-09-15T06:31:15.127Z,83.50
2022-09-15T06:33:44.650Z,81.70
2022-09-15T06:36:13.305Z,81.80
2022-09-15T06:38:41.651Z,83.30
2022-09-15T06:41:10.451Z,81.60
2022-09-15T06:43:38.557Z,82.80
2022-09-15T06:46:10.048Z,83.50
2022-09-15T06:48:38.602Z,83.50
2022-09-15T06:51:07.947Z,84.90
2022-09-15T06:53:38.083Z,84.30
2022-09-15T06:56:08.162Z,84.60
2022-09-15T06:58:37.089Z,83.80
2022-09-15T07:01:09.736Z,83.50
2022-09-15T07:03:39.230Z,82.90
2022-09-15T07:06:08.424Z,80.80
2022-09-15T07:08:36.369Z,80.60
2022-09-15T07:11:04.518Z,81.10
2022-09-15T07:13:32.432Z,80.80
2022-09-15T07:16:01.651Z,79.50
2022-09-15T07:18:31.956Z,79.10
2022-09-15T07:21:00.863Z,80.90
2022-09-15T07:23:29.405Z,78.50
2022-09-15T07:26:07.365Z,80.20
2022-09-15T07:28:35.418Z,79.70
2022-09-15T07:31:04.336Z,78.20
2022-09-15T07:33:34.260Z,78.90
2022-09-15T07:36:02.809Z,77.30
2022-09-15T07:38:30.740Z,77.10
2022-09-15T07:41:04.285Z,77.00
2022-09-15T07:43:32.225Z,76.10
2022-09-15T07:46:01.703Z,78.90
2022-09-15T07:48:30.181Z,82.90
2022-09-15T07:50:59.956Z,78.40
2022-09-15T07:53:30.063Z,75.50
2022-09-15T07:55:58.329Z,73.10
2022-09-15T07:58:26.814Z,68.60
2022-09-15T08:00:54.832Z,69.60
2022-09-15T08:03:22.763Z,68.40
2022-09-15T08:05:50.641Z,66.70
2022-09-15T08:08:19.892Z,66.70
2022-09-15T08:10:47.837Z,63.20
2022-09-15T08:13:15.841Z,60.40
2022-09-15T08:15:45.476Z,58.50
2022-09-15T08:18:13.424Z,59.60
2022-09-15T08:20:41.934Z,62.80
2022-09-15T08:23:09.929Z,64.50
2022-09-15T08:25:39.512Z,63.90
2022-09-15T08:28:08.077Z,62.90
2022-09-15T08:30:35.991Z,61.60
2022-09-15T08:33:03.846Z,61.80
2022-09-15T08:35:32.410Z,63.60
2022-09-15T08:38:00.263Z,60.80
2022-09-15T08:40:36.032Z,63.10
2022-09-15T08:43:16.767Z,63.80
2022-09-15T08:45:51.133Z,62.10
2022-09-15T08:48:22.611Z,62.60
2022-09-15T08:50:53.025Z,58.80
2022-09-15T08:53:25.479Z,61.60
2022-09-15T08:55:55.676Z,57.80
2022-09-15T08:58:26.929Z,59.60
2022-09-15T09:01:01.300Z,61.40
2022-09-15T09:03:59.993Z,59.80
2022-09-15T09:06:36.140Z,61.00
2022-09-15T09:09:16.543Z,61.50
2022-09-15T09:12:03.812Z,60.30
2022-09-15T09:14:46.192Z,61.00
2022-09-15T09:17:30.159Z,57.90
2022-09-15T09:20:25.830Z,56.90
2022-09-15T09:22:56.003Z,58.40
2022-09-15T09:25:28.572Z,56.90
2022-09-15T09:27:59.071Z,55.40
2022-09-15T09:30:33.091Z,55.80
2022-09-15T09:33:25.805Z,55.50
2022-09-15T09:35:54.165Z,54.40
2022-09-15T09:38:26.212Z,54.80
2022-09-15T09:40:58.599Z,56.30
2022-09-15T09:43:30.403Z,56.10
2022-09-15T09:46:00.633Z,55.30
2022-09-15T09:48:29.849Z,56.20
2022-09-15T09:50:57.954Z,53.80
2022-09-15T09:53:28.722Z,55.90
2022-09-15T09:56:17.205Z,55.80
2022-09-15T09:58:46.055Z,53.60
2022-09-15T10:01:17.650Z,52.00
2022-09-15T10:03:46.290Z,54.10
2022-09-15T10:06:16.960Z,53.20
2022-09-15T10:08:56.309Z,54.90
2022-09-15T10:11:41.137Z,52.70
2022-09-15T10:14:19.716Z,52.00
2022-09-15T10:16:59.592Z,53.70
2022-09-15T10:19:28.664Z,53.00
2022-09-15T10:21:58.077Z,52.50
2022-09-15T10:24:33.498Z,52.70
2022-09-15T10:27:19.349Z,53.00
2022-09-15T10:29:47.922Z,54.10
2022-09-15T10:32:25.423Z,52.10
2022-09-15T10:35:02.005Z,50.10
2022-09-15T10:37:38.102Z,52.50
2022-09-15T10:40:28.256Z,50.00
2022-09-15T10:43:02.435Z,50.50
2022-09-15T10:45:34.960Z,48.50
2022-09-15T10:48:29.385Z,47.40
2022-09-15T10:51:03.919Z,48.90
2022-09-15T10:53:56.730Z,45.40
2022-09-15T10:56:30.416Z,46.30
2022-09-15T10:59:21.225Z,46.60
2022-09-15T11:02:03.613Z,46.60
2022-09-15T11:04:46.965Z,48.30
2022-09-15T11:07:24.088Z,49.10
2022-09-15T11:09:57.518Z,50.90
2022-09-15T11:12:39.399Z,49.00
2022-09-15T11:15:22.738Z,51.70
2022-09-15T11:18:06.237Z,49.90
2022-09-15T11:20:56.554Z,51.30
2022-09-15T11:23:30.315Z,51.60
2022-09-15T11:26:04.222Z,50.90
2022-09-15T11:28:37.140Z,46.40
2022-09-15T11:31:14.341Z,44.30
2022-09-15T11:33:49.818Z,45.40
2022-09-15T11:36:23.926Z,44.60
2022-09-15T11:38:57.676Z,46.30
2022-09-15T11:41:33.069Z,46.80
2022-09-15T11:44:16.833Z,47.70
2022-09-15T11:47:15.603Z,47.60
2022-09-15T11:49:49.831Z,47.20
2022-09-15T11:52:50.202Z,46.80
2022-09-15T11:55:28.322Z,48.70
2022-09-15T11:58:04.371Z,49.00
2022-09-15T12:00:32.576Z,46.60
2022-09-15T12:03:13.642Z,49.20
2022-09-15T12:05:46.332Z,47.60
2022-09-15T12:08:20.360Z,52.40
2022-09-15T12:10:52.275Z,51.00
2022-09-15T12:13:22.488Z,48.20
2022-09-15T12:15:51.507Z,48.70
2022-09-15T12:18:39.032Z,47.90
2022-09-15T12:21:16.610Z,47.80
2022-09-15T12:23:52.215Z,48.20
2022-09-15T12:26:22.140Z,51.60
2022-09-15T12:28:55.348Z,50.90
2022-09-15T12:31:32.213Z,50.90
2022-09-15T12:34:02.187Z,50.20
2022-09-15T12:36:42.007Z,48.90
2022-09-15T12:39:27.302Z,46.80
2022-09-15T12:42:04.756Z,45.90
2022-09-15T12:44:37.553Z,47.70
2022-09-15T12:47:08.754Z,49.50
2022-09-15T12:49:44.491Z,48.20
2022-09-15T12:52:13.397Z,48.80
2022-09-15T12:54:50.895Z,48.10
2022-09-15T12:57:24.140Z,47.00
2022-09-15T13:00:27.675Z,47.80
2022-09-15T13:02:56.723Z,47.60
2022-09-15T13:06:06.626Z,49.00
2022-09-15T13:08:51.741Z,51.40
2022-09-15T13:11:31.769Z,49.00
2022-09-15T13:14:16.254Z,48.40
2022-09-15T13:16:50.905Z,48.00
2022-09-15T13:19:23.812Z,47.10
2022-09-15T13:21:58.942Z,47.70
2022-09-15T13:24:42.696Z,46.20
2022-09-15T13:27:13.064Z,47.40
2022-09-15T13:29:49.145Z,48.60
2022-09-15T13:32:28.963Z,49.40
2022-09-15T13:35:22.482Z,49.80
2022-09-15T13:38:26.483Z,48.00
2022-09-15T13:41:37.214Z,48.00
2022-09-15T13:44:20.585Z,46.30
2022-09-15T13:47:00.215Z,47.70
2022-09-15T13:49:49.581Z,47.50
2022-09-15T13:52:32.447Z,47.30
2022-09-15T13:55:17.180Z,47.80
2022-09-15T14:00:49.369Z,48.00
2022-09-15T14:03:23.818Z,49.20
2022-09-15T14:05:51.848Z,47.70
2022-09-15T14:08:24.202Z,48.40
2022-09-15T14:10:55.012Z,49.20
2022-09-15T14:13:26.590Z,47.30
2022-09-15T14:16:00.587Z,45.40
2022-09-15T14:18:28.999Z,46.80
2022-09-15T14:21:02.418Z,46.70
2022-09-15T14:23:31.047Z,47.60
2022-09-15T14:26:01.514Z,47.00
2022-09-15T14:28:33.216Z,46.80
2022-09-15T14:31:03.586Z,48.00
2022-09-15T14:33:38.186Z,48.60
2022-09-15T14:36:14.795Z,46.90
2022-09-15T14:38:42.789Z,47.60
2022-09-15T14:41:20.371Z,47.00
2022-09-15T14:43:48.273Z,47.70
2022-09-15T14:46:19.317Z,46.50
2022-09-15T14:48:47.330Z,46.50
2022-09-15T14:51:20.649Z,46.60
2022-09-15T14:53:51.809Z,44.10
2022-09-15T14:56:22.675Z,44.50
2022-09-15T14:58:53.799Z,44.70
2022-09-15T15:01:27.488Z,44.60
2022-09-15T15:04:01.540Z,43.40
2022-09-15T15:06:34.365Z,44.40
2022-09-15T15:09:06.944Z,42.80
2022-09-15T15:11:37.501Z,44.20
2022-09-15T15:14:08.325Z,44.00
2022-09-15T15:16:38.132Z,43.80
2022-09-15T15:19:06.198Z,42.80
2022-09-15T15:21:42.580Z,42.80
2022-09-15T15:24:18.246Z,42.60
2022-09-15T15:26:47.201Z,43.00
2022-09-15T15:29:42.517Z,43.60
2022-09-15T15:32:16.205Z,43.80
2022-09-15T15:34:50.946Z,42.80
2022-09-15T15:37:26.388Z,43.30
2022-09-15T15:39:55.828Z,43.60
2022-09-15T15:42:25.465Z,42.20
2022-09-15T15:45:01.516Z,43.50
2022-09-15T15:47:33.181Z,43.10
2022-09-15T15:50:13.233Z,42.60
2022-09-15T15:52:42.341Z,41.80
2022-09-15T15:55:14.931Z,42.30
2022-09-15T15:57:43.065Z,41.70
2022-09-15T16:00:21.518Z,42.20
2022-09-15T16:02:51.601Z,42.50
2022-09-15T16:05:20.585Z,42.10
2022-09-15T16:07:50.990Z,42.80
2022-09-15T16:10:22.410Z,42.20
2022-09-15T16:12:50.526Z,41.90
2022-09-15T16:15:22.731Z,42.50
2022-09-15T16:17:52.066Z,42.70
2022-09-15T16:20:20.737Z,41.30
2022-09-15T16:22:49.090Z,41.10
2022-09-15T16:25:19.211Z,41.00
2022-09-15T16:27:47.106Z,41.10
2022-09-15T16:30:15.058Z,41.30
2022-09-15T16:32:42.930Z,41.60
2022-09-15T16:35:32.453Z,41.60
2022-09-15T16:38:00.408Z,42.40
2022-09-15T16:40:28.473Z,41.40
2022-09-15T16:42:56.394Z,41.90
2022-09-15T16:45:30.690Z,41.60
2022-09-15T16:47:58.749Z,42.00
2022-09-15T16:50:28.613Z,42.40
2022-09-15T16:52:57.031Z,42.30
2022-09-15T16:55:33.906Z,42.20
2022-09-15T16:58:01.798Z,42.40
2022-09-15T17:00:30.325Z,42.30
2022-09-15T17:02:58.687Z,42.40
2022-09-15T17:05:30.587Z,42.80
2022-09-15T17:07:58.659Z,42.90
2022-09-15T17:10:26.558Z,43.30
2022-09-15T17:12:54.758Z,43.20
2022-09-15T17:15:25.762Z,43.50
2022-09-15T17:17:53.987Z,43.70
2022-09-15T17:20:22.963Z,43.80
2022-09-15T17:22:53.231Z,44.20
2022-09-15T17:25:28.167Z,44.30
2022-09-15T17:27:56.793Z,44.30
2022-09-15T17:30:27.527Z,44.40
2022-09-15T17:33:03.244Z,44.50
2022-09-15T17:35:34.373Z,44.60
2022-09-15T17:38:04.257Z,44.80
2022-09-15T17:40:33.513Z,45.10
2022-09-15T17:43:01.919Z,45.30
2022-09-15T17:45:33.027Z,45.40
2022-09-15T17:48:01.227Z,45.60
2022-09-15T17:50:30.552Z,45.60
2022-09-15T17:52:59.167Z,45.60
2022-09-15T17:55:30.961Z,46.40
2022-09-15T17:58:00.244Z,46.30
2022-09-15T18:00:31.943Z,46.60
2022-09-15T18:03:01.883Z,47.90
2022-09-15T18:05:31.962Z,48.50
2022-09-15T18:08:03.161Z,47.10
2022-09-15T18:10:34.070Z,47.50
2022-09-15T18:13:02.829Z,48.00
2022-09-15T18:15:32.864Z,48.30
2022-09-15T18:18:03.924Z,49.00
2022-09-15T18:20:34.042Z,50.20
2022-09-15T18:23:02.014Z,50.70
2022-09-15T18:25:33.622Z,51.20
2022-09-15T18:28:02.330Z,52.10
2022-09-15T18:30:32.577Z,52.70
2022-09-15T18:33:01.080Z,53.30
2022-09-15T18:35:29.069Z,53.60
2022-09-15T18:37:58.521Z,54.60
2022-09-15T18:40:27.529Z,53.80
2022-09-15T18:42:56.811Z,53.10
2022-09-15T18:45:24.843Z,52.90
2022-09-15T18:47:54.793Z,52.50
2022-09-15T18:50:25.273Z,52.10
2022-09-15T18:52:53.423Z,52.00
2022-09-15T18:55:24.769Z,51.70
2022-09-15T18:57:53.006Z,52.60
2022-09-15T19:00:26.902Z,52.20
2022-09-15T19:02:57.498Z,53.10
2022-09-15T19:05:26.289Z,53.10
2022-09-15T19:07:55.272Z,53.30
2022-09-15T19:10:23.726Z,53.60
2022-09-15T19:12:51.842Z,53.60
2022-09-15T19:15:23.598Z,53.80
2022-09-15T19:17:53.475Z,54.40
2022-09-15T19:20:21.602Z,53.80
2022-09-15T19:22:51.488Z,54.30
2022-09-15T19:25:19.653Z,54.20
2022-09-15T19:27:47.910Z,55.30
2022-09-15T19:30:15.854Z,54.60
2022-09-15T19:32:44.255Z,54.10
2022-09-15T19:35:13.453Z,53.50
2022-09-15T19:37:42.589Z,53.20
2022-09-15T19:40:13.166Z,52.50
2022-09-15T19:42:42.151Z,52.70
2022-09-15T19:45:11.789Z,52.70
2022-09-15T19:47:40.620Z,52.80
2022-09-15T19:50:11.609Z,52.60
2022-09-15T19:52:41.160Z,52.80
2022-09-15T19:55:10.137Z,53.10
2022-09-15T19:57:39.741Z,52.90
2022-09-15T20:00:09.759Z,52.90
2022-09-15T20:02:37.722Z,53.10
2022-09-15T20:05:06.352Z,53.70
2022-09-15T20:07:34.327Z,54.00
2022-09-15T20:10:03.675Z,55.10
2022-09-15T20:12:31.594Z,54.60
2022-09-15T20:14:59.454Z,55.10
2022-09-15T20:17:27.800Z,55.00
2022-09-15T20:19:55.777Z,56.20
2022-09-15T20:22:24.031Z,57.00
2022-09-15T20:24:52.067Z,57.20
2022-09-15T20:27:21.322Z,57.70
2022-09-15T20:29:49.325Z,58.00
2022-09-15T20:32:17.348Z,58.00
2022-09-15T20:34:45.270Z,58.00
2022-09-15T20:37:13.153Z,58.00
2022-09-15T20:39:41.221Z,57.50
2022-09-15T20:42:09.078Z,57.70
2022-09-15T20:44:38.317Z,57.60
2022-09-15T20:47:06.613Z,57.90
2022-09-15T20:49:34.490Z,58.20
2022-09-15T20:52:02.532Z,58.00
2022-09-15T20:54:30.418Z,58.20
2022-09-15T20:56:58.262Z,58.50
2022-09-15T20:59:26.091Z,59.00
2022-09-15T21:01:55.418Z,58.60
2022-09-15T21:04:23.315Z,59.60
2022-09-15T21:06:51.183Z,58.70
2022-09-15T21:09:19.211Z,58.80
2022-09-15T21:11:52.721Z,58.20
2022-09-15T21:14:21.337Z,57.70
2022-09-15T21:16:49.264Z,58.20
2022-09-15T21:19:18.538Z,59.00
2022-09-15T21:21:46.457Z,59.00
2022-09-15T21:24:14.390Z,58.70
2022-09-15T21:26:57.052Z,58.20
2022-09-15T21:29:25.206Z,57.40
2022-09-15T21:31:53.200Z,57.50
2022-09-15T21:34:22.499Z,58.20
2022-09-15T21:36:51.744Z,57.80
2022-09-15T21:39:19.654Z,57.80
2022-09-15T21:41:47.566Z,58.30
2022-09-15T21:44:15.560Z,58.00
2022-09-15T21:46:44.917Z,58.50
2022-09-15T21:49:12.752Z,58.00
2022-09-15T21:51:42.004Z,57.40
2022-09-15T21:54:10.154Z,57.40
2022-09-15T21:56:38.362Z,58.10
2022-09-15T21:59:08.951Z,59.00
2022-09-15T22:01:36.891Z,58.80
2022-09-15T22:04:07.385Z,58.40
2022-09-15T22:06:37.134Z,58.80
2022-09-15T22:09:09.042Z,58.40
2022-09-15T22:11:37.073Z,57.40
2022-09-15T22:14:08.139Z,57.60
2022-09-15T22:16:37.135Z,58.00
2022-09-15T22:19:06.951Z,58.00
2022-09-15T22:21:36.862Z,58.30
2022-09-15T22:24:07.856Z,58.40
2022-09-15T22:26:37.952Z,58.60
2022-09-15T22:29:06.023Z,58.70
2022-09-15T22:31:34.120Z,58.70
2022-09-15T22:34:02.038Z,58.90
2022-09-15T22:36:31.384Z,58.40
2022-09-15T22:39:04.525Z,58.40
2022-09-15T22:41:36.081Z,58.80
2022-09-15T22:44:05.072Z,58.80
2022-09-15T22:46:33.508Z,58.50
2022-09-15T22:49:01.668Z,58.30
2022-09-15T22:51:29.686Z,58.50
2022-09-15T22:53:58.449Z,58.50
2022-09-15T22:56:27.105Z,58.50
2022-09-15T22:58:57.716Z,58.50
2022-09-15T23:01:27.076Z,58.60
2022-09-15T23:03:56.754Z,58.90
2022-09-15T23:06:26.523Z,59.20
2022-09-15T23:08:55.911Z,59.20
2022-09-15T23:11:24.173Z,59.40
2022-09-15T23:13:53.254Z,59.00
2022-09-15T23:16:24.095Z,58.90
2022-09-15T23:18:52.204Z,58.80
2022-09-15T23:21:21.185Z,58.50
2022-09-15T23:23:49.826Z,58.80
2022-09-15T23:26:19.354Z,58.60
2022-09-15T23:28:49.201Z,58.50
2022-09-15T23:31:17.835Z,59.00
2022-09-15T23:33:47.588Z,58.50
2022-09-15T23:36:19.315Z,58.50
2022-09-15T23:38:47.905Z,58.40
2022-09-15T23:41:16.957Z,57.90
2022-09-15T23:43:45.197Z,57.40
2022-09-15T23:46:13.270Z,57.30
2022-09-15T23:48:41.333Z,57.50
2022-09-15T23:51:10.710Z,57.10
2022-09-15T23:53:38.606Z,57.00
2022-09-15T23:56:07.048Z,57.20
2022-09-15T23:58:35.080Z,57.50
